sensor_id;sensor_type;location;lat;lon;timestamp;P1;durP1;ratioP1;P2;durP2;ratioP2
51034;SDS011;37062;52.546;13.230;2023-06-10T00:00:03;7.68;;;4.35;;
51034;SDS011;37062;52.546;13.230;2023-06-10T00:02:40;9.65;;;4.25;;
51034;SDS011;37062;52.546;13.230;2023-06-10T00:05:09;6.65;;;3.78;;
51034;SDS011;37062;52.546;13.230;2023-06-10T00:07:37;6.70;;;3.90;;
51034;SDS011;37062;52.546;13.230;2023-06-10T00:10:08;8.15;;;3.58;;
51034;SDS011;37062;52.546;13.230;2023-06-10T00:12:37;8.45;;;4.15;;
51034;SDS011;37062;52.546;13.230;2023-06-10T00:15:07;8.30;;;4.18;;
51034;SDS011;37062;52.546;13.230;2023-06-10T00:17:36;9.95;;;4.35;;
51034;SDS011;37062;52.546;13.230;2023-06-10T00:20:08;10.15;;;4.20;;
51034;SDS011;37062;52.546;13.230;2023-06-10T00:22:39;8.13;;;4.20;;
51034;SDS011;37062;52.546;13.230;2023-06-10T00:25:08;11.13;;;4.40;;
51034;SDS011;37062;52.546;13.230;2023-06-10T00:27:37;9.35;;;4.00;;
51034;SDS011;37062;52.546;13.230;2023-06-10T00:30:06;6.80;;;4.10;;
51034;SDS011;37062;52.546;13.230;2023-06-10T00:32:35;9.68;;;3.72;;
51034;SDS011;37062;52.546;13.230;2023-06-10T00:35:04;8.95;;;4.18;;
51034;SDS011;37062;52.546;13.230;2023-06-10T00:37:35;8.27;;;4.18;;
51034;SDS011;37062;52.546;13.230;2023-06-10T00:40:05;9.57;;;3.97;;
51034;SDS011;37062;52.546;13.230;2023-06-10T00:42:35;8.40;;;4.32;;
51034;SDS011;37062;52.546;13.230;2023-06-10T00:45:04;8.77;;;4.40;;
51034;SDS011;37062;52.546;13.230;2023-06-10T00:47:35;9.77;;;4.15;;
51034;SDS011;37062;52.546;13.230;2023-06-10T00:50:04;8.25;;;4.10;;
51034;SDS011;37062;52.546;13.230;2023-06-10T00:52:33;7.22;;;3.90;;
51034;SDS011;37062;52.546;13.230;2023-06-10T00:55:04;8.18;;;4.50;;
51034;SDS011;37062;52.546;13.230;2023-06-10T00:57:34;10.32;;;4.35;;
51034;SDS011;37062;52.546;13.230;2023-06-10T01:00:05;8.65;;;4.10;;
51034;SDS011;37062;52.546;13.230;2023-06-10T01:02:35;7.75;;;4.00;;
51034;SDS011;37062;52.546;13.230;2023-06-10T01:05:04;10.75;;;4.95;;
51034;SDS011;37062;52.546;13.230;2023-06-10T01:07:35;7.72;;;3.83;;
51034;SDS011;37062;52.546;13.230;2023-06-10T01:10:14;8.23;;;3.53;;
51034;SDS011;37062;52.546;13.230;2023-06-10T01:12:49;10.40;;;3.83;;
51034;SDS011;37062;52.546;13.230;2023-06-10T01:15:30;13.18;;;4.90;;
51034;SDS011;37062;52.546;13.230;2023-06-10T01:18:00;10.63;;;4.00;;
51034;SDS011;37062;52.546;13.230;2023-06-10T01:20:29;10.80;;;4.13;;
51034;SDS011;37062;52.546;13.230;2023-06-10T01:23:01;7.95;;;3.95;;
51034;SDS011;37062;52.546;13.230;2023-06-10T01:25:30;10.82;;;3.80;;
51034;SDS011;37062;52.546;13.230;2023-06-10T01:28:03;8.93;;;3.58;;
51034;SDS011;37062;52.546;13.230;2023-06-10T01:30:39;8.00;;;4.10;;
51034;SDS011;37062;52.546;13.230;2023-06-10T01:33:16;11.15;;;4.40;;
51034;SDS011;37062;52.546;13.230;2023-06-10T01:35:50;12.20;;;4.30;;
51034;SDS011;37062;52.546;13.230;2023-06-10T01:38:20;10.48;;;3.88;;
51034;SDS011;37062;52.546;13.230;2023-06-10T01:40:49;10.60;;;4.03;;
51034;SDS011;37062;52.546;13.230;2023-06-10T01:43:19;9.38;;;4.07;;
51034;SDS011;37062;52.546;13.230;2023-06-10T01:45:48;11.40;;;3.97;;
51034;SDS011;37062;52.546;13.230;2023-06-10T01:48:16;12.38;;;4.22;;
51034;SDS011;37062;52.546;13.230;2023-06-10T01:50:45;7.13;;;4.03;;
51034;SDS011;37062;52.546;13.230;2023-06-10T01:53:13;8.52;;;4.18;;
51034;SDS011;37062;52.546;13.230;2023-06-10T01:55:42;7.43;;;3.40;;
51034;SDS011;37062;52.546;13.230;2023-06-10T01:58:11;8.95;;;4.18;;
51034;SDS011;37062;52.546;13.230;2023-06-10T02:00:39;11.23;;;4.15;;
51034;SDS011;37062;52.546;13.230;2023-06-10T02:03:08;11.85;;;4.13;;
51034;SDS011;37062;52.546;13.230;2023-06-10T02:05:36;10.82;;;4.15;;
51034;SDS011;37062;52.546;13.230;2023-06-10T02:08:05;7.63;;;4.40;;
51034;SDS011;37062;52.546;13.230;2023-06-10T02:10:33;9.55;;;4.10;;
51034;SDS011;37062;52.546;13.230;2023-06-10T02:13:03;9.65;;;4.03;;
51034;SDS011;37062;52.546;13.230;2023-06-10T02:15:31;13.45;;;4.47;;
51034;SDS011;37062;52.546;13.230;2023-06-10T02:17:59;8.95;;;3.78;;
51034;SDS011;37062;52.546;13.230;2023-06-10T02:20:29;6.50;;;4.03;;
51034;SDS011;37062;52.546;13.230;2023-06-10T02:22:57;8.68;;;3.80;;
51034;SDS011;37062;52.546;13.230;2023-06-10T02:25:28;10.10;;;4.60;;
51034;SDS011;37062;52.546;13.230;2023-06-10T02:27:56;8.43;;;4.78;;
51034;SDS011;37062;52.546;13.230;2023-06-10T02:30:26;9.75;;;4.00;;
51034;SDS011;37062;52.546;13.230;2023-06-10T02:32:54;13.05;;;3.90;;
51034;SDS011;37062;52.546;13.230;2023-06-10T02:35:24;9.20;;;4.55;;
51034;SDS011;37062;52.546;13.230;2023-06-10T02:37:54;8.18;;;3.80;;
51034;SDS011;37062;52.546;13.230;2023-06-10T02:40:22;9.13;;;4.50;;
51034;SDS011;37062;52.546;13.230;2023-06-10T02:42:50;8.60;;;4.03;;
51034;SDS011;37062;52.546;13.230;2023-06-10T02:45:19;9.27;;;4.13;;
51034;SDS011;37062;52.546;13.230;2023-06-10T02:47:48;9.43;;;4.28;;
51034;SDS011;37062;52.546;13.230;2023-06-10T02:50:17;9.00;;;4.00;;
51034;SDS011;37062;52.546;13.230;2023-06-10T02:52:57;12.05;;;4.38;;
51034;SDS011;37062;52.546;13.230;2023-06-10T02:55:26;8.90;;;3.60;;
51034;SDS011;37062;52.546;13.230;2023-06-10T02:58:00;9.55;;;4.35;;
51034;SDS011;37062;52.546;13.230;2023-06-10T03:00:30;9.40;;;4.28;;
51034;SDS011;37062;52.546;13.230;2023-06-10T03:03:00;9.23;;;4.38;;
51034;SDS011;37062;52.546;13.230;2023-06-10T03:05:34;13.25;;;4.43;;
51034;SDS011;37062;52.546;13.230;2023-06-10T03:08:04;7.80;;;3.92;;
51034;SDS011;37062;52.546;13.230;2023-06-10T03:10:35;8.70;;;4.45;;
51034;SDS011;37062;52.546;13.230;2023-06-10T03:13:04;7.85;;;3.75;;
51034;SDS011;37062;52.546;13.230;2023-06-10T03:15:32;7.55;;;4.38;;
51034;SDS011;37062;52.546;13.230;2023-06-10T03:18:07;10.77;;;4.10;;
51034;SDS011;37062;52.546;13.230;2023-06-10T03:20:36;7.38;;;3.97;;
51034;SDS011;37062;52.546;13.230;2023-06-10T03:23:09;7.75;;;4.68;;
51034;SDS011;37062;52.546;13.230;2023-06-10T03:25:37;7.70;;;3.67;;
51034;SDS011;37062;52.546;13.230;2023-06-10T03:28:05;11.55;;;4.70;;
51034;SDS011;37062;52.546;13.230;2023-06-10T03:30:35;9.85;;;4.63;;
51034;SDS011;37062;52.546;13.230;2023-06-10T03:33:04;9.40;;;4.88;;
51034;SDS011;37062;52.546;13.230;2023-06-10T03:35:33;8.23;;;4.25;;
51034;SDS011;37062;52.546;13.230;2023-06-10T03:38:04;7.18;;;4.05;;
51034;SDS011;37062;52.546;13.230;2023-06-10T03:40:33;8.18;;;4.18;;
51034;SDS011;37062;52.546;13.230;2023-06-10T03:43:01;8.27;;;4.28;;
51034;SDS011;37062;52.546;13.230;2023-06-10T03:45:30;10.73;;;4.28;;
51034;SDS011;37062;52.546;13.230;2023-06-10T03:47:59;8.88;;;4.30;;
51034;SDS011;37062;52.546;13.230;2023-06-10T03:50:42;10.10;;;3.92;;
51034;SDS011;37062;52.546;13.230;2023-06-10T03:53:11;10.05;;;4.57;;
51034;SDS011;37062;52.546;13.230;2023-06-10T03:55:41;7.55;;;4.20;;
51034;SDS011;37062;52.546;13.230;2023-06-10T03:58:09;12.55;;;4.60;;
51034;SDS011;37062;52.546;13.230;2023-06-10T04:00:40;14.20;;;4.32;;
51034;SDS011;37062;52.546;13.230;2023-06-10T04:03:08;13.52;;;4.82;;
51034;SDS011;37062;52.546;13.230;2023-06-10T04:05:48;10.10;;;4.55;;
51034;SDS011;37062;52.546;13.230;2023-06-10T04:08:16;10.75;;;4.75;;
51034;SDS011;37062;52.546;13.230;2023-06-10T04:10:44;7.95;;;4.28;;
51034;SDS011;37062;52.546;13.230;2023-06-10T04:13:13;7.78;;;4.25;;
51034;SDS011;37062;52.546;13.230;2023-06-10T04:15:52;7.30;;;4.20;;
51034;SDS011;37062;52.546;13.230;2023-06-10T04:18:22;7.25;;;3.90;;
51034;SDS011;37062;52.546;13.230;2023-06-10T04:20:55;6.80;;;4.18;;
51034;SDS011;37062;52.546;13.230;2023-06-10T04:23:23;9.20;;;4.32;;
51034;SDS011;37062;52.546;13.230;2023-06-10T04:25:52;8.57;;;4.50;;
51034;SDS011;37062;52.546;13.230;2023-06-10T04:28:21;8.88;;;4.70;;
51034;SDS011;37062;52.546;13.230;2023-06-10T04:30:49;10.95;;;4.93;;
51034;SDS011;37062;52.546;13.230;2023-06-10T04:33:18;8.30;;;4.55;;
51034;SDS011;37062;52.546;13.230;2023-06-10T04:35:46;8.82;;;4.25;;
51034;SDS011;37062;52.546;13.230;2023-06-10T04:38:18;8.52;;;4.10;;
51034;SDS011;37062;52.546;13.230;2023-06-10T04:40:46;9.30;;;4.65;;
51034;SDS011;37062;52.546;13.230;2023-06-10T04:43:16;9.30;;;4.85;;
51034;SDS011;37062;52.546;13.230;2023-06-10T04:45:46;8.90;;;4.63;;
51034;SDS011;37062;52.546;13.230;2023-06-10T04:48:14;9.50;;;4.72;;
51034;SDS011;37062;52.546;13.230;2023-06-10T04:50:42;8.57;;;4.25;;
51034;SDS011;37062;52.546;13.230;2023-06-10T04:53:11;9.52;;;4.50;;
51034;SDS011;37062;52.546;13.230;2023-06-10T04:55:45;8.35;;;4.15;;
51034;SDS011;37062;52.546;13.230;2023-06-10T04:58:14;9.77;;;4.50;;
51034;SDS011;37062;52.546;13.230;2023-06-10T05:00:43;10.73;;;4.40;;
51034;SDS011;37062;52.546;13.230;2023-06-10T05:03:11;9.35;;;4.57;;
51034;SDS011;37062;52.546;13.230;2023-06-10T05:05:39;12.43;;;4.60;;
51034;SDS011;37062;52.546;13.230;2023-06-10T05:08:07;8.85;;;5.10;;
51034;SDS011;37062;52.546;13.230;2023-06-10T05:10:36;11.90;;;4.75;;
51034;SDS011;37062;52.546;13.230;2023-06-10T05:13:05;8.00;;;5.18;;
51034;SDS011;37062;52.546;13.230;2023-06-10T05:15:33;5.90;;;4.20;;
51034;SDS011;37062;52.546;13.230;2023-06-10T05:18:02;9.15;;;5.22;;
51034;SDS011;37062;52.546;13.230;2023-06-10T05:20:30;8.65;;;4.60;;
51034;SDS011;37062;52.546;13.230;2023-06-10T05:22:58;9.60;;;4.75;;
51034;SDS011;37062;52.546;13.230;2023-06-10T05:25:28;8.85;;;4.63;;
51034;SDS011;37062;52.546;13.230;2023-06-10T05:27:57;7.35;;;4.80;;
51034;SDS011;37062;52.546;13.230;2023-06-10T05:30:27;9.18;;;5.05;;
51034;SDS011;37062;52.546;13.230;2023-06-10T05:32:56;7.75;;;4.55;;
51034;SDS011;37062;52.546;13.230;2023-06-10T05:35:24;6.60;;;4.63;;
51034;SDS011;37062;52.546;13.230;2023-06-10T05:37:52;9.00;;;4.30;;
51034;SDS011;37062;52.546;13.230;2023-06-10T05:40:20;7.93;;;4.80;;
51034;SDS011;37062;52.546;13.230;2023-06-10T05:42:49;10.07;;;4.55;;
51034;SDS011;37062;52.546;13.230;2023-06-10T05:45:17;9.15;;;5.15;;
51034;SDS011;37062;52.546;13.230;2023-06-10T05:47:46;6.40;;;4.63;;
51034;SDS011;37062;52.546;13.230;2023-06-10T05:50:15;7.70;;;4.93;;
51034;SDS011;37062;52.546;13.230;2023-06-10T05:52:43;8.60;;;4.78;;
51034;SDS011;37062;52.546;13.230;2023-06-10T05:55:11;7.07;;;4.68;;
51034;SDS011;37062;52.546;13.230;2023-06-10T05:57:41;7.80;;;4.93;;
51034;SDS011;37062;52.546;13.230;2023-06-10T06:00:09;7.35;;;4.88;;
51034;SDS011;37062;52.546;13.230;2023-06-10T06:02:38;7.15;;;4.70;;
51034;SDS011;37062;52.546;13.230;2023-06-10T06:05:08;7.75;;;4.80;;
51034;SDS011;37062;52.546;13.230;2023-06-10T06:07:37;7.22;;;4.65;;
51034;SDS011;37062;52.546;13.230;2023-06-10T06:10:05;7.28;;;4.82;;
51034;SDS011;37062;52.546;13.230;2023-06-10T06:12:34;8.23;;;5.28;;
51034;SDS011;37062;52.546;13.230;2023-06-10T06:15:03;7.03;;;4.78;;
51034;SDS011;37062;52.546;13.230;2023-06-10T06:17:32;9.25;;;4.95;;
51034;SDS011;37062;52.546;13.230;2023-06-10T06:20:00;7.82;;;4.80;;
51034;SDS011;37062;52.546;13.230;2023-06-10T06:22:30;7.00;;;4.97;;
51034;SDS011;37062;52.546;13.230;2023-06-10T06:24:58;6.82;;;4.45;;
51034;SDS011;37062;52.546;13.230;2023-06-10T06:27:27;9.73;;;5.65;;
51034;SDS011;37062;52.546;13.230;2023-06-10T06:29:56;7.90;;;5.40;;
51034;SDS011;37062;52.546;13.230;2023-06-10T06:32:24;11.13;;;5.05;;
51034;SDS011;37062;52.546;13.230;2023-06-10T06:34:54;15.73;;;5.43;;
51034;SDS011;37062;52.546;13.230;2023-06-10T06:37:22;8.00;;;4.90;;
51034;SDS011;37062;52.546;13.230;2023-06-10T06:40:03;8.50;;;5.47;;
51034;SDS011;37062;52.546;13.230;2023-06-10T06:42:32;7.50;;;5.07;;
51034;SDS011;37062;52.546;13.230;2023-06-10T06:45:10;12.52;;;4.75;;
51034;SDS011;37062;52.546;13.230;2023-06-10T06:47:38;8.38;;;5.20;;
51034;SDS011;37062;52.546;13.230;2023-06-10T06:50:07;7.95;;;5.43;;
51034;SDS011;37062;52.546;13.230;2023-06-10T06:52:36;6.93;;;5.38;;
51034;SDS011;37062;52.546;13.230;2023-06-10T06:55:06;12.32;;;5.07;;
51034;SDS011;37062;52.546;13.230;2023-06-10T06:57:35;10.07;;;5.07;;
51034;SDS011;37062;52.546;13.230;2023-06-10T07:00:04;7.25;;;5.45;;
51034;SDS011;37062;52.546;13.230;2023-06-10T07:02:35;7.55;;;5.18;;
51034;SDS011;37062;52.546;13.230;2023-06-10T07:05:03;7.50;;;4.75;;
51034;SDS011;37062;52.546;13.230;2023-06-10T07:07:34;9.82;;;4.70;;
51034;SDS011;37062;52.546;13.230;2023-06-10T07:10:02;9.10;;;5.28;;
51034;SDS011;37062;52.546;13.230;2023-06-10T07:12:32;8.77;;;5.75;;
51034;SDS011;37062;52.546;13.230;2023-06-10T07:15:01;8.63;;;5.22;;
51034;SDS011;37062;52.546;13.230;2023-06-10T07:17:29;10.32;;;5.82;;
51034;SDS011;37062;52.546;13.230;2023-06-10T07:19:57;9.07;;;5.15;;
51034;SDS011;37062;52.546;13.230;2023-06-10T07:22:26;8.13;;;5.00;;
51034;SDS011;37062;52.546;13.230;2023-06-10T07:24:55;11.25;;;5.15;;
51034;SDS011;37062;52.546;13.230;2023-06-10T07:27:23;8.15;;;5.68;;
51034;SDS011;37062;52.546;13.230;2023-06-10T07:29:53;11.32;;;5.38;;
51034;SDS011;37062;52.546;13.230;2023-06-10T07:32:21;8.52;;;5.22;;
51034;SDS011;37062;52.546;13.230;2023-06-10T07:34:50;7.85;;;4.82;;
51034;SDS011;37062;52.546;13.230;2023-06-10T07:37:19;11.52;;;5.65;;
51034;SDS011;37062;52.546;13.230;2023-06-10T07:39:47;7.00;;;5.30;;
51034;SDS011;37062;52.546;13.230;2023-06-10T07:42:15;7.00;;;5.25;;
51034;SDS011;37062;52.546;13.230;2023-06-10T07:44:43;6.18;;;5.25;;
51034;SDS011;37062;52.546;13.230;2023-06-10T07:47:13;10.57;;;5.43;;
51034;SDS011;37062;52.546;13.230;2023-06-10T07:49:41;9.82;;;5.53;;
51034;SDS011;37062;52.546;13.230;2023-06-10T07:52:10;9.13;;;5.10;;
51034;SDS011;37062;52.546;13.230;2023-06-10T07:54:38;8.38;;;5.28;;
51034;SDS011;37062;52.546;13.230;2023-06-10T07:57:06;8.40;;;5.40;;
51034;SDS011;37062;52.546;13.230;2023-06-10T07:59:34;12.40;;;5.30;;
51034;SDS011;37062;52.546;13.230;2023-06-10T08:02:03;11.05;;;5.63;;
51034;SDS011;37062;52.546;13.230;2023-06-10T08:04:32;9.10;;;6.05;;
51034;SDS011;37062;52.546;13.230;2023-06-10T08:07:02;8.80;;;5.03;;
51034;SDS011;37062;52.546;13.230;2023-06-10T08:09:31;12.07;;;5.90;;
51034;SDS011;37062;52.546;13.230;2023-06-10T08:11:59;11.70;;;5.53;;
51034;SDS011;37062;52.546;13.230;2023-06-10T08:14:28;9.93;;;5.30;;
51034;SDS011;37062;52.546;13.230;2023-06-10T08:16:56;18.08;;;8.80;;
51034;SDS011;37062;52.546;13.230;2023-06-10T08:19:24;8.27;;;5.32;;
51034;SDS011;37062;52.546;13.230;2023-06-10T08:21:53;11.63;;;5.60;;
51034;SDS011;37062;52.546;13.230;2023-06-10T08:24:22;6.28;;;5.00;;
51034;SDS011;37062;52.546;13.230;2023-06-10T08:26:50;8.75;;;5.65;;
51034;SDS011;37062;52.546;13.230;2023-06-10T08:29:18;8.02;;;5.40;;
51034;SDS011;37062;52.546;13.230;2023-06-10T08:31:47;8.88;;;5.63;;
51034;SDS011;37062;52.546;13.230;2023-06-10T08:34:15;8.88;;;5.50;;
51034;SDS011;37062;52.546;13.230;2023-06-10T08:36:43;8.38;;;5.30;;
51034;SDS011;37062;52.546;13.230;2023-06-10T08:39:13;8.20;;;5.57;;
51034;SDS011;37062;52.546;13.230;2023-06-10T08:41:42;7.85;;;5.60;;
51034;SDS011;37062;52.546;13.230;2023-06-10T08:44:15;13.50;;;5.85;;
51034;SDS011;37062;52.546;13.230;2023-06-10T08:46:47;10.40;;;5.60;;
51034;SDS011;37062;52.546;13.230;2023-06-10T08:49:17;7.60;;;5.35;;
51034;SDS011;37062;52.546;13.230;2023-06-10T08:51:48;6.70;;;5.20;;
51034;SDS011;37062;52.546;13.230;2023-06-10T08:54:20;7.97;;;5.00;;
51034;SDS011;37062;52.546;13.230;2023-06-10T08:56:53;9.93;;;5.85;;
51034;SDS011;37062;52.546;13.230;2023-06-10T08:59:24;10.07;;;5.95;;
51034;SDS011;37062;52.546;13.230;2023-06-10T09:01:53;9.45;;;6.30;;
51034;SDS011;37062;52.546;13.230;2023-06-10T09:04:22;6.05;;;4.95;;
51034;SDS011;37062;52.546;13.230;2023-06-10T09:06:52;9.02;;;5.60;;
51034;SDS011;37062;52.546;13.230;2023-06-10T09:09:23;7.85;;;5.75;;
51034;SDS011;37062;52.546;13.230;2023-06-10T09:11:53;8.38;;;5.38;;
51034;SDS011;37062;52.546;13.230;2023-06-10T09:14:21;10.75;;;5.60;;
51034;SDS011;37062;52.546;13.230;2023-06-10T09:16:50;7.97;;;6.40;;
51034;SDS011;37062;52.546;13.230;2023-06-10T09:19:18;10.13;;;5.53;;
51034;SDS011;37062;52.546;13.230;2023-06-10T09:21:47;8.30;;;5.22;;
51034;SDS011;37062;52.546;13.230;2023-06-10T09:24:16;7.90;;;5.70;;
51034;SDS011;37062;52.546;13.230;2023-06-10T09:26:45;9.50;;;5.88;;
51034;SDS011;37062;52.546;13.230;2023-06-10T09:29:14;12.95;;;6.40;;
51034;SDS011;37062;52.546;13.230;2023-06-10T09:31:42;7.97;;;5.80;;
51034;SDS011;37062;52.546;13.230;2023-06-10T09:34:12;5.90;;;5.30;;
51034;SDS011;37062;52.546;13.230;2023-06-10T09:36:43;10.20;;;6.25;;
51034;SDS011;37062;52.546;13.230;2023-06-10T09:39:13;9.63;;;5.93;;
51034;SDS011;37062;52.546;13.230;2023-06-10T09:41:43;8.60;;;5.70;;
51034;SDS011;37062;52.546;13.230;2023-06-10T09:44:13;8.98;;;6.18;;
51034;SDS011;37062;52.546;13.230;2023-06-10T09:46:44;9.93;;;6.10;;
51034;SDS011;37062;52.546;13.230;2023-06-10T09:49:14;8.00;;;5.72;;
51034;SDS011;37062;52.546;13.230;2023-06-10T09:51:49;10.48;;;6.13;;
51034;SDS011;37062;52.546;13.230;2023-06-10T09:54:19;13.05;;;6.22;;
51034;SDS011;37062;52.546;13.230;2023-06-10T09:56:48;9.30;;;6.10;;
51034;SDS011;37062;52.546;13.230;2023-06-10T09:59:27;11.45;;;6.05;;
51034;SDS011;37062;52.546;13.230;2023-06-10T10:01:58;7.45;;;6.10;;
51034;SDS011;37062;52.546;13.230;2023-06-10T10:04:27;10.05;;;6.65;;
51034;SDS011;37062;52.546;13.230;2023-06-10T10:06:56;10.45;;;5.65;;
51034;SDS011;37062;52.546;13.230;2023-06-10T10:09:26;9.00;;;6.20;;
51034;SDS011;37062;52.546;13.230;2023-06-10T10:11:55;10.20;;;6.20;;
51034;SDS011;37062;52.546;13.230;2023-06-10T10:14:25;9.65;;;5.78;;
51034;SDS011;37062;52.546;13.230;2023-06-10T10:16:55;12.93;;;5.53;;
51034;SDS011;37062;52.546;13.230;2023-06-10T10:19:27;7.13;;;5.63;;
51034;SDS011;37062;52.546;13.230;2023-06-10T10:22:01;9.98;;;6.20;;
51034;SDS011;37062;52.546;13.230;2023-06-10T10:24:33;14.32;;;6.35;;
51034;SDS011;37062;52.546;13.230;2023-06-10T10:27:07;11.57;;;6.05;;
51034;SDS011;37062;52.546;13.230;2023-06-10T10:29:41;12.20;;;6.70;;
51034;SDS011;37062;52.546;13.230;2023-06-10T10:32:15;7.78;;;5.88;;
51034;SDS011;37062;52.546;13.230;2023-06-10T10:34:48;9.15;;;6.05;;
51034;SDS011;37062;52.546;13.230;2023-06-10T10:37:20;9.63;;;6.65;;
51034;SDS011;37062;52.546;13.230;2023-06-10T10:39:48;12.73;;;6.60;;
51034;SDS011;37062;52.546;13.230;2023-06-10T10:42:19;10.38;;;5.85;;
51034;SDS011;37062;52.546;13.230;2023-06-10T10:44:47;11.68;;;6.55;;
51034;SDS011;37062;52.546;13.230;2023-06-10T10:47:17;9.70;;;6.15;;
51034;SDS011;37062;52.546;13.230;2023-06-10T10:49:50;9.48;;;6.85;;
51034;SDS011;37062;52.546;13.230;2023-06-10T10:52:20;11.70;;;6.55;;
51034;SDS011;37062;52.546;13.230;2023-06-10T10:54:48;10.63;;;6.40;;
51034;SDS011;37062;52.546;13.230;2023-06-10T10:57:17;7.10;;;5.05;;
51034;SDS011;37062;52.546;13.230;2023-06-10T10:59:52;9.73;;;5.75;;
51034;SDS011;37062;52.546;13.230;2023-06-10T11:02:32;7.75;;;5.60;;
51034;SDS011;37062;52.546;13.230;2023-06-10T11:05:10;5.47;;;4.88;;
51034;SDS011;37062;52.546;13.230;2023-06-10T11:07:51;7.63;;;5.10;;
51034;SDS011;37062;52.546;13.230;2023-06-10T11:10:29;7.82;;;4.72;;
51034;SDS011;37062;52.546;13.230;2023-06-10T11:13:00;6.70;;;4.63;;
51034;SDS011;37062;52.546;13.230;2023-06-10T11:15:37;10.02;;;5.13;;
51034;SDS011;37062;52.546;13.230;2023-06-10T11:18:10;9.88;;;5.30;;
51034;SDS011;37062;52.546;13.230;2023-06-10T11:23:37;7.07;;;4.63;;
51034;SDS011;37062;52.546;13.230;2023-06-10T11:26:11;6.45;;;4.88;;
51034;SDS011;37062;52.546;13.230;2023-06-10T11:29:03;6.70;;;4.28;;
51034;SDS011;37062;52.546;13.230;2023-06-10T11:31:45;5.93;;;3.95;;
51034;SDS011;37062;52.546;13.230;2023-06-10T11:34:21;4.90;;;4.10;;
51034;SDS011;37062;52.546;13.230;2023-06-10T11:36:53;5.57;;;4.50;;
51034;SDS011;37062;52.546;13.230;2023-06-10T11:39:21;6.15;;;4.38;;
51034;SDS011;37062;52.546;13.230;2023-06-10T11:41:53;6.07;;;4.32;;
51034;SDS011;37062;52.546;13.230;2023-06-10T11:44:27;6.18;;;3.85;;
51034;SDS011;37062;52.546;13.230;2023-06-10T11:46:56;4.70;;;4.03;;
51034;SDS011;37062;52.546;13.230;2023-06-10T11:49:24;4.90;;;4.40;;
51034;SDS011;37062;52.546;13.230;2023-06-10T11:51:52;6.45;;;4.95;;
51034;SDS011;37062;52.546;13.230;2023-06-10T11:54:21;5.10;;;4.22;;
51034;SDS011;37062;52.546;13.230;2023-06-10T11:56:49;5.88;;;4.95;;
51034;SDS011;37062;52.546;13.230;2023-06-10T11:59:17;9.15;;;4.78;;
51034;SDS011;37062;52.546;13.230;2023-06-10T12:01:47;5.88;;;4.68;;
51034;SDS011;37062;52.546;13.230;2023-06-10T12:04:15;5.53;;;4.80;;
51034;SDS011;37062;52.546;13.230;2023-06-10T12:06:45;6.85;;;4.97;;
51034;SDS011;37062;52.546;13.230;2023-06-10T12:09:16;8.00;;;4.63;;
51034;SDS011;37062;52.546;13.230;2023-06-10T12:11:52;5.78;;;4.68;;
51034;SDS011;37062;52.546;13.230;2023-06-10T12:17:23;6.80;;;5.25;;
51034;SDS011;37062;52.546;13.230;2023-06-10T12:19:51;5.93;;;5.30;;
51034;SDS011;37062;52.546;13.230;2023-06-10T12:22:20;5.53;;;4.45;;
51034;SDS011;37062;52.546;13.230;2023-06-10T12:24:59;8.02;;;4.75;;
51034;SDS011;37062;52.546;13.230;2023-06-10T12:27:29;7.72;;;5.35;;
51034;SDS011;37062;52.546;13.230;2023-06-10T12:29:58;5.97;;;5.22;;
51034;SDS011;37062;52.546;13.230;2023-06-10T12:32:38;6.95;;;5.25;;
51034;SDS011;37062;52.546;13.230;2023-06-10T12:35:09;6.07;;;5.45;;
51034;SDS011;37062;52.546;13.230;2023-06-10T12:37:40;6.07;;;5.47;;
51034;SDS011;37062;52.546;13.230;2023-06-10T12:40:09;6.20;;;5.50;;
51034;SDS011;37062;52.546;13.230;2023-06-10T12:42:38;7.32;;;4.90;;
51034;SDS011;37062;52.546;13.230;2023-06-10T12:45:08;5.68;;;4.85;;
51034;SDS011;37062;52.546;13.230;2023-06-10T12:47:40;6.47;;;5.10;;
51034;SDS011;37062;52.546;13.230;2023-06-10T12:50:08;6.30;;;5.05;;
51034;SDS011;37062;52.546;13.230;2023-06-10T12:52:38;6.05;;;4.68;;
51034;SDS011;37062;52.546;13.230;2023-06-10T12:55:08;6.60;;;4.53;;
51034;SDS011;37062;52.546;13.230;2023-06-10T12:57:36;5.22;;;4.68;;
51034;SDS011;37062;52.546;13.230;2023-06-10T13:00:05;5.90;;;4.30;;
51034;SDS011;37062;52.546;13.230;2023-06-10T13:02:36;5.30;;;4.13;;
51034;SDS011;37062;52.546;13.230;2023-06-10T13:05:06;4.97;;;4.18;;
51034;SDS011;37062;52.546;13.230;2023-06-10T13:07:38;5.30;;;4.80;;
51034;SDS011;37062;52.546;13.230;2023-06-10T13:10:08;8.23;;;4.75;;
51034;SDS011;37062;52.546;13.230;2023-06-10T13:12:37;5.70;;;5.20;;
51034;SDS011;37062;52.546;13.230;2023-06-10T13:15:13;7.55;;;5.00;;
51034;SDS011;37062;52.546;13.230;2023-06-10T13:17:42;13.52;;;5.85;;
51034;SDS011;37062;52.546;13.230;2023-06-10T13:20:13;8.30;;;5.82;;
51034;SDS011;37062;52.546;13.230;2023-06-10T13:22:42;7.50;;;5.90;;
51034;SDS011;37062;52.546;13.230;2023-06-10T13:25:10;9.85;;;6.63;;
51034;SDS011;37062;52.546;13.230;2023-06-10T13:27:40;7.45;;;6.00;;
51034;SDS011;37062;52.546;13.230;2023-06-10T13:30:09;9.30;;;6.45;;
51034;SDS011;37062;52.546;13.230;2023-06-10T13:32:38;7.32;;;6.22;;
51034;SDS011;37062;52.546;13.230;2023-06-10T13:35:06;10.32;;;7.13;;
51034;SDS011;37062;52.546;13.230;2023-06-10T13:37:38;7.95;;;6.40;;
51034;SDS011;37062;52.546;13.230;2023-06-10T13:40:06;6.93;;;6.22;;
51034;SDS011;37062;52.546;13.230;2023-06-10T13:42:36;8.68;;;6.68;;
51034;SDS011;37062;52.546;13.230;2023-06-10T13:45:04;7.60;;;6.70;;
51034;SDS011;37062;52.546;13.230;2023-06-10T13:47:34;9.20;;;6.32;;
51034;SDS011;37062;52.546;13.230;2023-06-10T13:50:03;8.13;;;6.18;;
51034;SDS011;37062;52.546;13.230;2023-06-10T13:52:32;7.93;;;6.68;;
51034;SDS011;37062;52.546;13.230;2023-06-10T13:55:01;9.38;;;6.55;;
51034;SDS011;37062;52.546;13.230;2023-06-10T13:57:30;8.30;;;6.18;;
51034;SDS011;37062;52.546;13.230;2023-06-10T13:59:58;9.30;;;6.38;;
51034;SDS011;37062;52.546;13.230;2023-06-10T14:02:26;9.98;;;6.35;;
51034;SDS011;37062;52.546;13.230;2023-06-10T14:04:54;7.80;;;5.55;;
51034;SDS011;37062;52.546;13.230;2023-06-10T14:07:22;7.90;;;5.45;;
51034;SDS011;37062;52.546;13.230;2023-06-10T14:09:52;6.05;;;5.45;;
51034;SDS011;37062;52.546;13.230;2023-06-10T14:12:21;8.65;;;5.75;;
51034;SDS011;37062;52.546;13.230;2023-06-10T14:14:50;11.77;;;5.90;;
51034;SDS011;37062;52.546;13.230;2023-06-10T14:17:18;7.43;;;6.35;;
51034;SDS011;37062;52.546;13.230;2023-06-10T14:19:46;9.27;;;5.68;;
51034;SDS011;37062;52.546;13.230;2023-06-10T14:22:14;7.30;;;5.80;;
51034;SDS011;37062;52.546;13.230;2023-06-10T14:24:43;12.52;;;5.50;;
51034;SDS011;37062;52.546;13.230;2023-06-10T14:27:11;6.90;;;5.53;;
51034;SDS011;37062;52.546;13.230;2023-06-10T14:29:40;10.52;;;5.80;;
51034;SDS011;37062;52.546;13.230;2023-06-10T14:32:09;6.22;;;5.53;;
51034;SDS011;37062;52.546;13.230;2023-06-10T14:34:37;6.93;;;5.57;;
51034;SDS011;37062;52.546;13.230;2023-06-10T14:37:06;8.32;;;5.30;;
51034;SDS011;37062;52.546;13.230;2023-06-10T14:39:34;5.40;;;4.82;;
51034;SDS011;37062;52.546;13.230;2023-06-10T14:42:03;7.00;;;5.43;;
51034;SDS011;37062;52.546;13.230;2023-06-10T14:44:32;7.35;;;4.65;;
51034;SDS011;37062;52.546;13.230;2023-06-10T14:47:02;7.32;;;5.20;;
51034;SDS011;37062;52.546;13.230;2023-06-10T14:49:31;6.95;;;4.72;;
51034;SDS011;37062;52.546;13.230;2023-06-10T14:51:59;9.02;;;5.03;;